Time;durP1;ratioP1;P1;durP2;ratioP2;P2;SDS_P1;SDS_P2;PMS_P1;PMS_P2;Temp;Humidity;BMP_temperature;BMP_pressure;BME280_temperature;BME280_humidity;BME280_pressure;Samples;Min_cycle;Max_cycle;Signal;HPM_P1;HPM_P2
2024/01/16 00:01:54;;;;;;;9.10;2.20;;;;;;;-0.29;67.72;98244.06;682146;1263;139877;-79
2024/01/16 00:16:58;;;;;;;6.70;3.10;;;;;;;-0.32;67.81;98276.79;682015;1264;138756;-80
2024/01/16 00:32:01;;;;;;;10.50;2.20;;;;;;;-0.35;67.83;98310.00;682281;1260;139243;-80
2024/01/16 00:47:05;;;;;;;5.20;2.20;;;;;;;-0.38;67.98;98343.19;682212;1264;139317;-79
2024/01/16 01:02:11;;;;;;;4.70;1.50;;;;;;;-0.50;67.44;98379.81;682147;1264;139009;-80
2024/01/16 01:17:15;;;;;;;5.40;1.50;;;;;;;-0.87;66.41;98406.12;682125;1262;140494;-80
2024/01/16 01:32:20;;;;;;;6.10;2.70;;;;;;;-1.31;65.39;98436.45;682316;1261;138593;-80
2024/01/16 01:47:27;;;;;;;15.10;5.40;;;;;;;-1.48;65.17;98472.20;682182;1262;138860;-80
2024/01/16 02:02:32;;;;;;;20.20;6.60;;;;;;;-1.47;65.70;98492.07;682181;1260;139443;-80
2024/01/16 02:17:35;;;;;;;5.40;3.20;;;;;;;-1.77;65.70;98510.27;682410;1260;139189;-80
2024/01/16 02:32:39;;;;;;;7.40;2.80;;;;;;;-2.13;65.88;98535.20;682335;1260;139909;-79
2024/01/16 02:47:42;;;;;;;3.00;1.50;;;;;;;-2.30;66.06;98550.83;682476;1259;139272;-80
2024/01/16 03:02:46;;;;;;;2.10;1.10;;;;;;;-2.48;65.77;98570.61;682377;1260;138567;-80
2024/01/16 03:17:49;;;;;;;1.20;0.80;;;;;;;-2.57;65.66;98587.77;682432;1259;138917;-79
2024/01/16 03:32:52;;;;;;;1.10;1.10;;;;;;;-2.70;65.16;98600.69;682372;1259;139380;-79
2024/01/16 03:47:57;;;;;;;4.30;1.80;;;;;;;-2.73;64.48;98624.49;682263;1259;139267;-79
2024/01/16 04:03:01;;;;;;;2.20;1.40;;;;;;;-2.91;64.62;98655.13;682367;1261;139166;-78
2024/01/16 04:18:06;;;;;;;6.10;1.80;;;;;;;-3.07;65.03;98674.22;682282;1262;139313;-79
2024/01/16 04:33:09;;;;;;;5.30;1.70;;;;;;;-3.15;64.96;98694.84;682327;1264;139055;-79
2024/01/16 04:48:15;;;;;;;4.60;2.20;;;;;;;-3.28;64.97;98703.93;682052;1259;139095;-79
2024/01/16 05:03:33;;;;;;;4.10;1.30;;;;;;;-3.34;65.34;98730.45;682392;1261;139655;-78
2024/01/16 05:18:36;;;;;;;7.50;1.50;;;;;;;-3.39;65.09;98746.60;682029;1262;139705;-79
2024/01/16 05:33:40;;;;;;;4.30;2.40;;;;;;;-3.46;65.25;98771.42;682207;1263;140083;-80
2024/01/16 05:48:47;;;;;;;30.40;8.80;;;;;;;-3.61;65.07;98798.94;682133;1263;140307;-78
2024/01/16 06:03:51;;;;;;;21.80;6.70;;;;;;;-3.74;65.55;98807.09;682276;1263;140604;-78
2024/01/16 06:18:54;;;;;;;18.90;6.40;;;;;;;-3.85;65.98;98830.08;682232;1259;139344;-78
2024/01/16 06:33:57;;;;;;;5.00;2.10;;;;;;;-3.92;66.28;98864.39;682205;1259;139301;-78
2024/01/16 06:49:04;;;;;;;11.20;5.40;;;;;;;-3.90;66.06;98894.71;682086;1263;139395;-78
2024/01/16 07:04:07;;;;;;;19.50;7.30;;;;;;;-3.91;66.38;98913.91;682048;1266;139962;-79
2024/01/16 07:19:11;;;;;;;15.60;8.10;;;;;;;-3.79;66.49;98945.98;682142;1275;139827;-78
2024/01/16 07:34:19;;;;;;;28.30;8.80;;;;;;;-3.81;66.52;98965.17;682116;1262;139335;-79
2024/01/16 07:49:23;;;;;;;53.00;20.80;;;;;;;-3.74;66.74;98981.77;682200;1259;139972;-79
2024/01/16 08:04:28;;;;;;;53.00;20.00;;;;;;;-3.54;66.68;98999.91;682261;1261;139271;-80
2024/01/16 08:19:32;;;;;;;22.80;10.20;;;;;;;-3.22;66.63;99032.85;682217;1263;139510;-80
2024/01/16 08:34:36;;;;;;;13.50;6.90;;;;;;;-3.06;66.11;99061.59;682334;1263;139751;-80
2024/01/16 08:49:43;;;;;;;10.60;3.90;;;;;;;-2.77;66.16;99086.29;682223;1259;139292;-81
2024/01/16 09:04:50;;;;;;;18.00;5.20;;;;;;;-2.19;65.92;99101.90;682419;1260;139096;-80
2024/01/16 09:19:54;;;;;;;9.00;5.30;;;;;;;0.29;66.73;99111.80;682108;1263;139548;-81
2024/01/16 09:34:58;;;;;;;12.00;5.40;;;;;;;4.97;64.75;99131.73;682326;1260;138839;-78
2024/01/16 09:50:03;;;;;;;8.90;4.90;;;;;;;7.36;58.86;99145.89;682103;1260;138887;-79
2024/01/16 10:05:08;;;;;;;31.80;17.30;;;;;;;7.79;54.49;99164.36;682239;1262;138013;-79
2024/01/16 10:20:13;;;;;;;36.40;20.80;;;;;;;5.51;51.74;99181.02;682024;1265;139062;-79
2024/01/16 10:35:18;;;;;;;60.90;24.70;;;;;;;3.66;51.47;99189.88;681963;1265;138002;-78
2024/01/16 10:50:24;;;;;;;26.70;13.10;;;;;;;1.35;52.81;99210.05;682068;1265;138862;-78
2024/01/16 11:05:35;;;;;;;16.50;6.60;;;;;;;1.33;53.86;99222.21;682207;1264;139158;-77
2024/01/16 11:20:42;;;;;;;22.80;9.70;;;;;;;2.50;54.19;99238.20;682357;1265;139361;-77
2024/01/16 11:35:49;;;;;;;41.40;11.90;;;;;;;1.78;54.28;99245.39;682045;1260;139216;-78
2024/01/16 11:50:55;;;;;;;39.80;13.00;;;;;;;2.61;54.45;99257.58;682358;1264;138595;-79
2024/01/16 12:05:59;;;;;;;17.40;6.30;;;;;;;2.81;53.52;99265.70;682136;1263;139419;-79
2024/01/16 12:21:26;;;;;;;46.10;15.50;;;;;;;1.66;53.42;99266.21;682102;1264;138865;-78
2024/01/16 12:36:32;;;;;;;95.20;31.40;;;;;;;0.49;53.47;99285.93;682234;1260;139818;-78
2024/01/16 12:51:36;;;;;;;66.00;22.80;;;;;;;-0.17;54.61;99304.56;682317;1264;138591;-78
2024/01/16 13:06:43;;;;;;;73.90;31.20;;;;;;;-0.38;55.35;99324.18;682027;1267;138251;-78
2024/01/16 13:21:49;;;;;;;23.80;11.10;;;;;;;-0.50;55.70;99337.52;682324;1265;138368;-80
2024/01/16 13:36:54;;;;;;;597.70;218.70;;;;;;;-0.70;56.17;99351.56;682050;1263;138545;-77
2024/01/16 13:52:17;;;;;;;71.50;23.30;;;;;;;-0.61;56.68;99377.50;681949;1266;139927;-79
2024/01/16 14:07:23;;;;;;;176.00;47.50;;;;;;;-0.12;57.53;99389.00;682185;1266;138282;-79
2024/01/16 14:22:28;;;;;;;75.20;24.80;;;;;;;-0.24;57.66;99404.48;682074;1265;139909;-78
2024/01/16 14:37:35;;;;;;;53.30;20.10;;;;;;;-0.41;58.49;99416.40;682020;1266;138266;-78
2024/01/16 14:52:41;;;;;;;111.70;37.90;;;;;;;-0.58;58.50;99424.73;682071;1259;138346;-78
2024/01/16 15:07:46;;;;;;;55.90;17.80;;;;;;;-0.76;58.76;99435.37;681902;1265;139203;-78
2024/01/16 15:22:52;;;;;;;123.90;39.60;;;;;;;-1.03;58.65;99449.83;681710;1266;138470;-79
2024/01/16 15:37:57;;;;;;;111.10;34.60;;;;;;;-1.00;59.71;99463.20;682046;1265;138862;-78
2024/01/16 15:53:02;;;;;;;67.30;23.00;;;;;;;-1.14;60.01;99478.42;682113;1266;138689;-78
2024/01/16 16:08:07;;;;;;;163.90;44.40;;;;;;;-1.74;59.35;99495.30;682071;1264;139532;-79
2024/01/16 16:23:12;;;;;;;391.80;104.60;;;;;;;-2.42;59.12;99504.73;682189;1263;139662;-79
2024/01/16 16:38:19;;;;;;;321.30;76.30;;;;;;;-3.33;59.44;99520.42;682150;1263;139988;-80
2024/01/16 16:53:23;;;;;;;392.50;93.60;;;;;;;-3.73;59.89;99528.58;681981;1260;139879;-79
2024/01/16 17:08:39;;;;;;;726.30;230.40;;;;;;;-3.89;60.86;99532.98;681950;1260;139548;-80
2024/01/16 17:23:44;;;;;;;521.90;148.10;;;;;;;-4.14;61.13;99541.66;681925;1260;139555;-79
2024/01/16 17:38:55;;;;;;;222.50;61.10;;;;;;;-4.16;62.01;99557.11;681946;1262;139745;-80
2024/01/16 17:54:00;;;;;;;578.30;144.80;;;;;;;-4.30;62.28;99567.03;681823;1262;141215;-80
2024/01/16 18:09:09;;;;;;;176.10;43.80;;;;;;;-4.33;62.10;99585.26;682060;1265;139622;-80
2024/01/16 18:24:26;;;;;;;230.00;58.10;;;;;;;-4.48;62.09;99599.98;681894;1260;140409;-80
2024/01/16 18:39:32;;;;;;;267.00;86.00;;;;;;;-4.93;62.35;99612.83;682068;1263;142828;-81
2024/01/16 18:54:36;;;;;;;158.60;51.30;;;;;;;-5.51;62.56;99618.19;682099;1260;140663;-79
2024/01/16 19:09:43;;;;;;;141.20;40.80;;;;;;;-5.74;63.14;99611.08;681990;1263;139431;-79
2024/01/16 19:24:47;;;;;;;280.90;72.10;;;;;;;-6.03;62.97;99620.01;681785;1262;152444;-80
2024/01/16 19:39:52;;;;;;;189.20;51.80;;;;;;;-6.10;63.67;99641.83;682038;1272;140340;-81
2024/01/16 19:55:00;;;;;;;219.80;62.70;;;;;;;-6.00;64.15;99659.91;681921;1260;140868;-80
2024/01/16 20:10:04;;;;;;;193.40;57.10;;;;;;;-6.05;64.27;99657.02;681833;1260;140279;-80
2024/01/16 20:25:12;;;;;;;161.50;44.30;;;;;;;-6.05;64.79;99667.59;681970;1261;139574;-81
2024/01/16 20:40:17;;;;;;;171.40;57.30;;;;;;;-5.97;65.10;99680.76;682080;1262;139576;-81
2024/01/16 20:55:21;;;;;;;272.20;81.20;;;;;;;-6.18;65.21;99677.98;681994;1263;139646;-80
2024/01/16 21:10:24;;;;;;;428.00;128.20;;;;;;;-6.13;65.90;99672.08;681945;1261;140763;-80
2024/01/16 21:25:30;;;;;;;490.20;148.40;;;;;;;-5.84;66.25;99658.75;681789;1262;139751;-80
2024/01/16 21:40:35;;;;;;;523.50;163.30;;;;;;;-5.55;66.54;99648.13;682175;1262;139868;-81
2024/01/16 21:55:39;;;;;;;165.30;43.60;;;;;;;-5.42;66.63;99639.73;682062;1260;139766;-80
2024/01/16 22:10:43;;;;;;;169.20;42.70;;;;;;;-5.23;66.77;99634.66;682091;1260;142606;-81
2024/01/16 22:25:47;;;;;;;504.80;114.90;;;;;;;-5.18;66.85;99636.21;681988;1265;139663;-79
2024/01/16 22:40:51;;;;;;;302.50;72.60;;;;;;;-5.04;66.82;99624.64;682120;1262;140497;-79
2024/01/16 22:55:55;;;;;;;207.00;46.10;;;;;;;-5.15;66.79;99611.38;682171;1262;139230;-79
2024/01/16 23:10:59;;;;;;;180.50;42.70;;;;;;;-5.31;66.93;99595.19;682307;1260;141653;-79
2024/01/16 23:26:04;;;;;;;136.00;41.60;;;;;;;-5.20;67.44;99570.63;682197;1265;140049;-80
2024/01/16 23:41:08;;;;;;;188.40;46.30;;;;;;;-5.06;67.40;99546.95;682066;1261;140884;-79
2024/01/16 23:56:13;;;;;;;159.90;38.70;;;;;;;-4.82;67.74;99542.17;682325;1263;139656;-80
